Time;durP1;ratioP1;P1;durP2;ratioP2;P2;SDS_P1;SDS_P2;PMS_P1;PMS_P2;Temp;Humidity;BMP_temperature;BMP_pressure;BME280_temperature;BME280_humidity;BME280_pressure;Samples;Min_cycle;Max_cycle;Signal;HPM_P1;HPM_P2
2022/06/07 00:00:14;;;;;;;2.58;1.50;;;16.10;99.90;;;;;;4965521;28;20959;-73
2022/06/07 00:02:40;;;;;;;1.88;1.60;;;16.10;99.90;;;;;;4955589;28;20043;-73
2022/06/07 00:05:06;;;;;;;1.83;1.50;;;16.20;99.90;;;;;;4960625;28;20046;-74
2022/06/07 00:07:32;;;;;;;2.63;1.75;;;16.30;99.90;;;;;;4965123;28;20042;-75
2022/06/07 00:09:58;;;;;;;2.50;2.30;;;16.30;99.90;;;;;;4954855;28;20201;-68
2022/06/07 00:12:24;;;;;;;2.33;2.08;;;16.20;99.90;;;;;;4960372;28;20050;-68
2022/06/07 00:14:50;;;;;;;2.30;2.10;;;16.10;99.90;;;;;;4957632;28;20047;-68
2022/06/07 00:17:15;;;;;;;1.95;1.85;;;16.10;99.90;;;;;;4952677;28;20041;-67
2022/06/07 00:19:41;;;;;;;3.17;1.75;;;16.20;99.90;;;;;;4954670;28;20050;-68
2022/06/07 00:22:08;;;;;;;1.85;1.75;;;16.30;99.90;;;;;;4957634;28;20182;-68
2022/06/07 00:24:34;;;;;;;2.95;2.10;;;16.30;99.90;;;;;;4948397;28;20053;-68
2022/06/07 00:27:00;;;;;;;2.63;2.33;;;16.30;99.90;;;;;;4957593;28;20039;-68
2022/06/07 00:29:27;;;;;;;12.35;2.40;;;16.30;99.90;;;;;;4969023;28;20042;-73
2022/06/07 00:31:54;;;;;;;2.33;2.03;;;16.40;99.90;;;;;;4968267;28;20038;-74
2022/06/07 00:34:19;;;;;;;2.22;1.98;;;16.30;99.90;;;;;;4967447;28;20043;-76
2022/06/07 00:36:45;;;;;;;1.80;1.70;;;16.30;99.90;;;;;;4972526;28;20074;-76
2022/06/07 00:39:11;;;;;;;3.53;1.58;;;16.20;99.90;;;;;;4965960;28;20075;-75
2022/06/07 00:41:37;;;;;;;2.03;1.92;;;16.20;99.90;;;;;;4968190;28;20058;-75
2022/06/07 00:44:21;;;;;;;2.15;1.88;;;16.20;99.90;;;;;;4969278;28;20047;-76
2022/06/07 00:46:54;;;;;;;1.98;1.42;;;16.20;99.90;;;;;;4963982;28;20042;-75
2022/06/07 00:49:21;;;;;;;2.80;1.70;;;16.20;99.90;;;;;;4973222;28;20027;-75
2022/06/07 00:51:47;;;;;;;3.53;1.30;;;16.20;99.90;;;;;;4964953;28;20121;-75
2022/06/07 00:54:24;;;;;;;2.35;1.40;;;16.20;99.90;;;;;;4965892;28;21852;-76
2022/06/07 00:56:51;;;;;;;2.00;1.55;;;16.10;99.90;;;;;;4967383;28;20038;-76
2022/06/07 00:59:17;;;;;;;2.63;1.77;;;16.00;99.90;;;;;;4959537;28;20043;-75
2022/06/07 01:01:43;;;;;;;1.85;1.75;;;16.00;99.90;;;;;;4952129;28;20058;-76
2022/06/07 01:04:09;;;;;;;1.85;1.50;;;16.00;99.90;;;;;;4955150;28;20487;-76
2022/06/07 01:12:04;;;;;;;3.35;1.90;;;15.80;99.90;;;;;;4958920;28;20070;-75
2022/06/07 01:14:30;;;;;;;1.80;1.70;;;15.80;99.90;;;;;;4960681;28;20041;-76
2022/06/07 01:16:56;;;;;;;2.28;1.88;;;15.80;99.90;;;;;;4940766;28;20038;-76
2022/06/07 01:19:21;;;;;;;3.60;1.80;;;15.90;99.90;;;;;;4962267;28;20385;-76
2022/06/07 01:21:47;;;;;;;3.55;1.80;;;15.90;99.90;;;;;;4957639;28;20496;-75
2022/06/07 01:24:15;;;;;;;2.78;1.67;;;15.90;99.90;;;;;;4963753;28;20042;-76
2022/06/07 01:26:41;;;;;;;2.70;1.52;;;15.90;99.90;;;;;;4960292;28;20480;-76
2022/06/07 01:29:07;;;;;;;3.78;1.88;;;15.90;99.90;;;;;;4959384;28;20035;-76
2022/06/07 01:31:33;;;;;;;4.38;1.63;;;15.80;99.90;;;;;;4940774;28;20526;-75
2022/06/07 01:34:00;;;;;;;3.63;1.50;;;15.80;99.90;;;;;;4962150;28;20034;-75
2022/06/07 01:36:26;;;;;;;3.13;1.60;;;15.80;99.90;;;;;;4936629;28;20431;-75
2022/06/07 01:41:53;;;;;;;3.65;1.95;;;15.60;99.90;;;;;;4960360;28;20070;-75
2022/06/07 01:44:20;;;;;;;2.28;1.60;;;15.60;99.90;;;;;;4950235;28;20085;-75
2022/06/07 01:46:45;;;;;;;3.00;1.58;;;15.60;99.90;;;;;;4956693;28;20035;-75
2022/06/07 01:49:11;;;;;;;2.72;1.63;;;15.60;99.90;;;;;;4958186;28;20555;-75
2022/06/07 01:51:37;;;;;;;1.77;1.60;;;15.60;99.90;;;;;;4956490;28;20277;-76
2022/06/07 01:54:02;;;;;;;1.55;1.42;;;15.60;99.90;;;;;;4962448;28;20051;-75
2022/06/07 01:56:28;;;;;;;2.83;1.52;;;15.70;99.90;;;;;;4946984;28;20131;-75
2022/06/07 01:58:54;;;;;;;1.58;1.42;;;15.70;99.90;;;;;;4942865;28;20097;-75
2022/06/07 02:01:20;;;;;;;2.13;1.60;;;15.70;99.90;;;;;;4946725;28;20066;-75
2022/06/07 02:03:45;;;;;;;2.88;1.67;;;15.70;99.90;;;;;;4962183;28;20042;-69
2022/06/07 02:06:12;;;;;;;3.70;1.80;;;15.70;99.90;;;;;;4949122;28;20058;-69
2022/06/07 02:08:40;;;;;;;1.77;1.67;;;15.60;99.90;;;;;;4961761;28;20141;-69
2022/06/07 02:11:18;;;;;;;2.25;1.75;;;15.60;99.90;;;;;;4954426;28;20049;-69
2022/06/07 02:13:46;;;;;;;2.45;1.35;;;15.60;99.90;;;;;;4960881;28;20034;-69
2022/06/07 02:16:12;;;;;;;2.13;1.42;;;15.60;99.90;;;;;;4959820;28;20043;-68
2022/06/07 02:18:39;;;;;;;3.88;1.30;;;15.60;99.90;;;;;;4960048;28;20043;-69
2022/06/07 02:21:05;;;;;;;2.38;1.30;;;15.60;99.90;;;;;;4959439;28;20054;-69
2022/06/07 02:23:32;;;;;;;1.45;1.35;;;15.60;99.90;;;;;;4950727;28;20035;-68
2022/06/07 02:26:21;;;;;;;1.42;1.33;;;15.60;99.90;;;;;;4951908;28;20070;-68
2022/06/07 02:28:51;;;;;;;2.63;1.40;;;15.60;99.90;;;;;;4943311;28;20071;-68
2022/06/07 02:31:18;;;;;;;3.75;1.40;;;15.40;99.90;;;;;;4960162;28;20141;-68
2022/06/07 02:33:45;;;;;;;1.65;1.55;;;15.30;99.90;;;;;;4956106;28;20572;-69
2022/06/07 02:36:12;;;;;;;1.80;1.60;;;15.20;99.90;;;;;;4956185;28;20149;-68
2022/06/07 02:38:40;;;;;;;1.98;1.52;;;15.30;99.90;;;;;;4956981;28;20074;-68
2022/06/07 02:41:09;;;;;;;2.63;1.50;;;15.30;99.90;;;;;;4960399;28;20042;-69
2022/06/07 02:43:35;;;;;;;2.00;1.77;;;15.20;99.90;;;;;;4956766;28;20046;-69
2022/06/07 02:46:02;;;;;;;1.45;1.35;;;15.20;99.90;;;;;;4957089;28;20138;-68
2022/06/07 02:48:29;;;;;;;2.42;1.73;;;15.10;99.90;;;;;;4959812;28;20089;-68
2022/06/07 02:50:55;;;;;;;2.80;1.83;;;15.00;99.90;;;;;;4957129;28;20050;-68
2022/06/07 02:53:20;;;;;;;2.33;1.58;;;15.00;99.90;;;;;;4960105;28;21544;-69
2022/06/07 02:55:46;;;;;;;1.60;1.50;;;14.90;99.90;;;;;;4959355;28;20058;-68
2022/06/07 02:58:12;;;;;;;2.20;1.65;;;15.00;99.90;;;;;;4935692;28;20165;-69
2022/06/07 03:00:37;;;;;;;1.70;1.60;;;15.00;99.90;;;;;;4955603;28;20121;-75
2022/06/07 03:03:04;;;;;;;1.80;1.70;;;15.10;99.90;;;;;;4960025;28;20041;-74
2022/06/07 03:05:29;;;;;;;2.05;1.85;;;15.10;99.90;;;;;;4939690;28;20126;-74
2022/06/07 03:07:55;;;;;;;3.17;1.35;;;15.20;99.90;;;;;;4957870;28;20692;-74
2022/06/07 03:10:21;;;;;;;2.35;1.15;;;15.30;99.90;;;;;;4959047;28;20086;-74
2022/06/07 03:12:47;;;;;;;2.03;1.38;;;15.20;99.90;;;;;;4958439;28;20043;-74
2022/06/07 03:15:13;;;;;;;2.28;1.45;;;15.10;99.90;;;;;;4957052;28;23062;-74
2022/06/07 03:17:39;;;;;;;1.85;1.15;;;15.10;99.90;;;;;;4958886;28;20054;-75
2022/06/07 03:20:08;;;;;;;3.75;1.55;;;15.00;99.90;;;;;;4954055;28;20051;-76
2022/06/07 03:22:34;;;;;;;1.50;1.23;;;15.00;99.90;;;;;;4959232;28;20090;-76
2022/06/07 03:25:05;;;;;;;4.38;1.48;;;15.00;99.90;;;;;;4952257;28;20091;-75
2022/06/07 03:27:35;;;;;;;1.50;1.40;;;14.90;99.90;;;;;;4959250;28;20451;-75
2022/06/07 03:30:02;;;;;;;1.50;1.40;;;14.90;99.90;;;;;;4956668;28;20047;-75
2022/06/07 03:32:28;;;;;;;4.15;1.85;;;15.00;99.90;;;;;;4962559;28;20567;-75
2022/06/07 03:34:54;;;;;;;1.55;1.45;;;15.00;99.90;;;;;;4955200;28;20055;-74
2022/06/07 03:37:20;;;;;;;1.90;1.60;;;15.00;99.90;;;;;;4954219;28;20039;-75
2022/06/07 03:39:45;;;;;;;2.05;1.42;;;15.10;99.90;;;;;;4954613;28;20839;-74
2022/06/07 03:42:12;;;;;;;1.63;1.20;;;15.20;99.90;;;;;;4958171;28;20150;-75
2022/06/07 03:44:38;;;;;;;2.55;1.40;;;15.20;99.90;;;;;;4959112;28;20047;-74
2022/06/07 03:47:05;;;;;;;2.33;1.63;;;15.20;99.90;;;;;;4957985;28;20039;-75
2022/06/07 03:49:31;;;;;;;1.30;1.20;;;15.30;99.90;;;;;;4955825;28;20057;-74
2022/06/07 03:51:57;;;;;;;1.70;1.60;;;15.40;99.90;;;;;;4956139;28;20027;-74
2022/06/07 03:54:23;;;;;;;7.05;1.63;;;15.50;99.90;;;;;;4954048;28;20062;-75
2022/06/07 03:56:49;;;;;;;1.77;1.65;;;15.50;99.90;;;;;;4956674;28;20035;-74
2022/06/07 03:59:15;;;;;;;2.22;1.60;;;15.60;99.90;;;;;;4949419;28;20587;-75
2022/06/07 04:01:41;;;;;;;3.60;1.55;;;15.70;99.90;;;;;;4961382;28;20154;-75
2022/06/07 04:04:09;;;;;;;1.65;1.55;;;15.70;99.90;;;;;;4953673;28;20241;-75
2022/06/07 04:06:40;;;;;;;1.92;1.83;;;15.70;99.90;;;;;;4959047;28;20054;-75
2022/06/07 04:09:06;;;;;;;3.70;1.63;;;15.70;99.90;;;;;;4953501;28;20038;-75
2022/06/07 04:11:32;;;;;;;2.67;1.50;;;15.80;99.90;;;;;;4956122;28;20082;-76
2022/06/07 04:13:58;;;;;;;16.95;2.70;;;15.90;99.90;;;;;;4929521;28;20071;-74
2022/06/07 04:16:27;;;;;;;33.60;3.30;;;16.00;99.90;;;;;;4955797;28;20039;-74
2022/06/07 04:18:56;;;;;;;2.53;2.10;;;16.10;99.90;;;;;;4950557;28;20043;-75
2022/06/07 04:21:23;;;;;;;3.10;1.95;;;16.20;99.90;;;;;;4950147;28;20054;-75
2022/06/07 04:23:49;;;;;;;3.40;1.90;;;16.30;99.90;;;;;;4934153;28;20050;-75
2022/06/07 04:26:18;;;;;;;3.67;1.83;;;16.40;99.90;;;;;;4956017;28;20035;-76
2022/06/07 04:28:44;;;;;;;6.38;2.13;;;16.50;99.90;;;;;;4955145;28;20127;-74
2022/06/07 04:31:18;;;;;;;4.07;1.75;;;16.60;99.90;;;;;;4954563;28;20347;-75
2022/06/07 04:33:44;;;;;;;75.45;6.30;;;16.70;99.90;;;;;;4942211;28;20063;-75
2022/06/07 04:36:19;;;;;;;21.40;2.72;;;16.80;99.90;;;;;;4954234;28;20360;-75
2022/06/07 04:38:46;;;;;;;4.43;2.35;;;17.00;99.90;;;;;;4957535;28;20027;-76
2022/06/07 04:41:14;;;;;;;1.77;1.67;;;17.00;99.90;;;;;;4954720;28;20078;-76
2022/06/07 04:43:40;;;;;;;2.00;1.90;;;17.20;99.90;;;;;;4960070;28;20023;-78
2022/06/07 04:46:09;;;;;;;2.13;1.92;;;17.20;99.90;;;;;;4958053;28;20569;-76
2022/06/07 04:48:37;;;;;;;2.08;1.58;;;17.30;99.90;;;;;;4955357;28;20539;-75
2022/06/07 04:51:09;;;;;;;2.97;2.05;;;17.40;99.90;;;;;;4953379;28;20155;-76
2022/06/07 04:53:35;;;;;;;3.15;2.00;;;17.40;99.90;;;;;;4954036;28;20216;-76
2022/06/07 04:56:08;;;;;;;2.00;1.90;;;17.50;99.90;;;;;;4958252;28;20047;-76
2022/06/07 04:58:33;;;;;;;2.30;2.10;;;17.60;99.90;;;;;;4960334;28;20039;-68
2022/06/07 05:00:59;;;;;;;3.00;1.90;;;17.80;99.90;;;;;;4951354;28;20061;-68
2022/06/07 05:03:25;;;;;;;2.15;1.95;;;17.80;99.90;;;;;;4956310;28;20456;-68
2022/06/07 05:05:50;;;;;;;2.17;1.73;;;17.90;99.90;;;;;;4956273;28;20078;-68
2022/06/07 05:08:17;;;;;;;1.58;1.48;;;18.10;99.90;;;;;;4959908;28;20105;-68
2022/06/07 05:10:43;;;;;;;1.65;1.52;;;18.20;99.90;;;;;;4956169;28;20423;-68
2022/06/07 05:13:09;;;;;;;7.63;2.47;;;18.30;99.90;;;;;;4955930;28;20035;-68
2022/06/07 05:15:35;;;;;;;3.60;2.00;;;18.40;99.90;;;;;;4958439;28;20038;-68
2022/06/07 05:18:01;;;;;;;12.13;2.40;;;18.50;99.90;;;;;;4947704;28;20084;-68
2022/06/07 05:20:26;;;;;;;6.05;2.70;;;18.60;99.90;;;;;;4945575;28;20051;-69
2022/06/07 05:22:52;;;;;;;2.67;2.47;;;18.80;99.90;;;;;;4960349;28;20672;-68
2022/06/07 05:25:18;;;;;;;2.65;2.45;;;18.90;99.90;;;;;;4960893;28;20515;-68
2022/06/07 05:27:47;;;;;;;5.22;2.65;;;19.00;99.90;;;;;;4961526;28;20043;-68
2022/06/07 05:30:15;;;;;;;3.55;2.55;;;19.10;99.90;;;;;;4958462;28;20035;-68
2022/06/07 05:32:41;;;;;;;4.60;2.70;;;19.20;99.90;;;;;;4957715;28;20503;-73
2022/06/07 05:35:08;;;;;;;8.50;2.47;;;19.30;99.90;;;;;;4961583;28;20049;-75
2022/06/07 05:37:34;;;;;;;3.72;2.20;;;19.40;99.90;;;;;;4962682;28;20111;-72
2022/06/07 05:40:03;;;;;;;2.65;2.40;;;19.50;99.90;;;;;;4954826;28;20051;-75
2022/06/07 05:42:28;;;;;;;2.35;2.15;;;19.60;99.90;;;;;;4957475;28;20039;-74
2022/06/07 05:44:54;;;;;;;2.25;2.15;;;19.80;99.90;;;;;;4956023;28;20054;-74
2022/06/07 05:47:19;;;;;;;2.65;2.10;;;19.90;99.90;;;;;;4958300;28;20522;-75
2022/06/07 05:49:45;;;;;;;4.30;1.92;;;20.00;99.90;;;;;;4962741;28;20059;-74
2022/06/07 05:52:11;;;;;;;1.88;1.77;;;20.00;99.90;;;;;;4965825;28;20696;-67
2022/06/07 05:54:40;;;;;;;1.85;1.73;;;20.10;99.90;;;;;;4956698;28;20075;-67
2022/06/07 05:57:07;;;;;;;1.80;1.70;;;20.20;99.90;;;;;;4962118;28;20051;-67
2022/06/07 05:59:34;;;;;;;4.78;1.77;;;20.20;99.90;;;;;;4956423;28;20035;-67
2022/06/07 06:01:59;;;;;;;1.83;1.73;;;20.20;99.90;;;;;;4964342;28;20066;-67
2022/06/07 06:04:25;;;;;;;1.55;1.45;;;20.20;99.90;;;;;;4958290;28;20068;-67
2022/06/07 06:06:54;;;;;;;2.35;1.48;;;20.30;99.90;;;;;;4962952;28;20062;-66
2022/06/07 06:12:05;;;;;;;4.43;1.30;;;20.40;99.90;;;;;;4962998;28;20281;-67
2022/06/07 06:14:30;;;;;;;2.88;1.40;;;20.50;99.90;;;;;;4953837;28;20474;-67
2022/06/07 06:16:56;;;;;;;1.85;1.50;;;20.50;99.90;;;;;;4959678;28;20853;-67
2022/06/07 06:19:22;;;;;;;3.47;1.30;;;20.60;99.90;;;;;;4956163;28;20134;-68
2022/06/07 06:21:48;;;;;;;3.28;1.70;;;20.70;99.90;;;;;;4964119;28;20063;-68
2022/06/07 06:24:15;;;;;;;5.63;2.08;;;20.90;99.90;;;;;;4962241;28;20038;-67
2022/06/07 06:26:42;;;;;;;1.85;1.58;;;20.90;99.90;;;;;;4961925;28;20047;-67
2022/06/07 06:29:08;;;;;;;2.10;1.90;;;21.00;99.90;;;;;;4965906;28;20031;-67
2022/06/07 06:31:35;;;;;;;1.52;1.42;;;21.00;99.90;;;;;;4956659;28;20134;-67
2022/06/07 06:34:02;;;;;;;2.25;2.08;;;21.20;99.90;;;;;;4961207;28;20719;-67
2022/06/07 06:36:28;;;;;;;2.28;2.08;;;21.20;99.90;;;;;;4938209;28;20038;-67
2022/06/07 06:38:55;;;;;;;2.08;1.88;;;21.30;99.90;;;;;;4946202;28;20059;-67
2022/06/07 06:41:21;;;;;;;2.20;2.00;;;21.40;99.90;;;;;;4951918;28;20043;-67
2022/06/07 06:43:48;;;;;;;1.77;1.67;;;21.50;99.90;;;;;;4960595;28;20089;-67
2022/06/07 06:46:20;;;;;;;3.17;2.15;;;21.60;99.90;;;;;;4953016;28;20031;-66
2022/06/07 06:48:46;;;;;;;1.58;1.48;;;21.70;99.90;;;;;;4958145;28;20031;-67
2022/06/07 06:51:14;;;;;;;1.52;1.42;;;21.80;99.90;;;;;;4952497;28;20118;-68
2022/06/07 06:53:42;;;;;;;1.50;1.40;;;22.00;99.90;;;;;;4946314;28;20544;-68
2022/06/07 06:56:09;;;;;;;3.13;1.67;;;22.00;99.90;;;;;;4955592;28;20114;-68
2022/06/07 06:58:35;;;;;;;2.28;1.88;;;22.10;99.90;;;;;;4953263;28;20027;-68
2022/06/07 07:01:03;;;;;;;1.75;1.65;;;22.20;99.90;;;;;;4948910;28;20059;-67
2022/06/07 07:03:29;;;;;;;1.65;1.55;;;22.30;99.90;;;;;;4940206;28;20043;-68
2022/06/07 07:05:56;;;;;;;1.52;1.42;;;22.30;99.90;;;;;;4941467;28;20042;-68
2022/06/07 07:08:24;;;;;;;2.03;1.27;;;22.40;99.90;;;;;;4947702;28;20129;-68
2022/06/07 07:10:50;;;;;;;1.58;1.48;;;22.50;99.90;;;;;;4953312;28;20201;-68
2022/06/07 07:13:16;;;;;;;2.55;1.75;;;22.60;99.90;;;;;;4952965;28;20058;-69
2022/06/07 07:15:47;;;;;;;1.98;1.83;;;22.70;99.90;;;;;;4946266;28;20117;-68
2022/06/07 07:18:13;;;;;;;2.05;1.85;;;22.80;99.90;;;;;;4947379;28;20509;-68
2022/06/07 07:20:40;;;;;;;2.35;2.13;;;22.80;99.90;;;;;;4953364;28;20461;-68
2022/06/07 07:23:06;;;;;;;2.25;2.05;;;22.80;99.90;;;;;;4957110;28;20031;-68
2022/06/07 07:25:32;;;;;;;4.97;2.20;;;22.90;99.90;;;;;;4943675;28;20883;-67
2022/06/07 07:27:58;;;;;;;2.75;2.25;;;23.00;99.90;;;;;;4963751;28;20042;-74
2022/06/07 07:30:24;;;;;;;1.88;1.77;;;23.00;99.90;;;;;;4939116;28;20551;-75
2022/06/07 07:32:49;;;;;;;2.20;2.10;;;23.10;99.90;;;;;;4950203;28;20070;-73
2022/06/07 07:35:17;;;;;;;3.35;2.00;;;23.20;99.90;;;;;;4962424;28;20133;-75
2022/06/07 07:37:43;;;;;;;2.95;1.90;;;23.20;99.90;;;;;;4958900;28;20071;-73
2022/06/07 07:40:10;;;;;;;4.90;2.00;;;23.20;99.90;;;;;;4953304;28;20100;-74
2022/06/07 07:42:35;;;;;;;2.13;2.00;;;23.20;99.90;;;;;;4960420;28;20066;-76
2022/06/07 07:45:01;;;;;;;4.25;2.33;;;23.30;99.90;;;;;;4961570;28;20039;-76
2022/06/07 07:47:27;;;;;;;2.33;2.22;;;23.50;99.90;;;;;;4953812;28;20488;-68
2022/06/07 07:49:53;;;;;;;1.90;1.70;;;23.50;99.90;;;;;;4957991;28;20051;-68
2022/06/07 07:52:19;;;;;;;3.35;1.70;;;23.60;99.90;;;;;;4955216;28;20118;-68
2022/06/07 07:54:46;;;;;;;1.92;1.80;;;23.70;99.90;;;;;;4955751;28;21590;-67
2022/06/07 07:57:12;;;;;;;3.13;2.13;;;23.80;99.90;;;;;;4936635;28;20065;-68
2022/06/07 07:59:37;;;;;;;2.20;2.00;;;23.90;99.60;;;;;;4956042;28;20043;-69
2022/06/07 08:02:03;;;;;;;2.25;1.80;;;23.90;99.60;;;;;;4949289;28;20500;-68
2022/06/07 08:04:29;;;;;;;1.90;1.80;;;24.00;99.20;;;;;;4952041;28;20035;-67
2022/06/07 08:06:55;;;;;;;2.10;1.90;;;24.00;99.80;;;;;;4950904;28;20047;-67
2022/06/07 08:09:22;;;;;;;2.85;2.00;;;24.00;98.80;;;;;;4956651;28;20036;-67
2022/06/07 08:11:48;;;;;;;2.00;1.80;;;24.00;99.50;;;;;;4960282;28;23860;-68
2022/06/07 08:14:18;;;;;;;1.80;1.70;;;24.10;99.50;;;;;;4948078;28;20030;-68
2022/06/07 08:16:44;;;;;;;2.63;2.10;;;24.20;99.40;;;;;;4937207;28;20532;-68
2022/06/07 08:19:10;;;;;;;4.25;1.83;;;24.20;98.90;;;;;;4952252;28;20779;-69
2022/06/07 08:21:37;;;;;;;2.10;1.90;;;24.20;99.50;;;;;;4948433;28;20062;-69
2022/06/07 08:24:04;;;;;;;2.20;2.00;;;24.30;99.00;;;;;;4946193;28;20118;-68
2022/06/07 08:26:31;;;;;;;2.45;1.75;;;24.30;98.90;;;;;;4954806;28;20141;-68
2022/06/07 08:28:57;;;;;;;2.22;1.65;;;24.30;99.00;;;;;;4937944;28;20047;-68
2022/06/07 08:31:29;;;;;;;2.80;1.60;;;24.30;98.70;;;;;;4939115;28;20796;-68
2022/06/07 08:39:25;;;;;;;2.78;1.80;;;24.40;98.50;;;;;;4955380;28;21199;-68
2022/06/07 10:10:21;;;;;;;1.30;1.20;;;26.20;92.20;;;;;;4960260;28;20077;-76
2022/06/07 10:13:15;;;;;;;4.18;2.75;;;26.30;93.30;;;;;;4984743;28;20049;-73
2022/06/07 10:15:43;;;;;;;1.90;1.15;;;26.30;92.40;;;;;;4989398;28;20367;-77
2022/06/07 10:18:26;;;;;;;1.30;1.15;;;26.10;91.20;;;;;;4993194;28;20037;-79
2022/06/07 10:21:26;;;;;;;0.88;0.85;;;26.10;90.80;;;;;;4993353;28;20054;-69
2022/06/07 10:24:00;;;;;;;1.25;1.10;;;26.00;89.20;;;;;;4992598;28;20579;-68
2022/06/07 10:26:35;;;;;;;3.03;1.63;;;26.00;91.10;;;;;;4964559;28;20046;-69
2022/06/07 10:29:57;;;;;;;1.30;1.20;;;26.10;90.40;;;;;;4995368;28;20057;-69
2022/06/07 10:32:38;;;;;;;2.00;1.10;;;26.00;89.10;;;;;;4934977;28;20062;-73
2022/06/07 10:35:13;;;;;;;1.10;1.00;;;26.00;91.20;;;;;;4918620;28;20043;-76
2022/06/07 10:37:46;;;;;;;9.00;1.10;;;26.10;91.20;;;;;;4962885;28;20061;-74
2022/06/07 10:40:17;;;;;;;3.88;1.55;;;26.20;91.20;;;;;;4973940;28;20556;-83
2022/06/07 10:43:23;;;;;;;1.45;1.35;;;26.10;90.90;;;;;;4986799;28;20775;-75
2022/06/07 10:48:32;;;;;;;3.70;1.30;;;25.90;90.80;;;;;;4990886;28;20048;-74
2022/06/07 10:54:10;;;;;;;1.67;1.58;;;25.90;88.50;;;;;;4997277;28;20041;-74
2022/06/07 10:56:41;;;;;;;1.73;1.55;;;25.70;89.80;;;;;;4995209;28;20109;-76
2022/06/07 10:59:20;;;;;;;3.28;1.58;;;25.60;90.10;;;;;;4990926;28;20061;-72
2022/06/07 11:01:50;;;;;;;2.78;1.38;;;25.60;90.10;;;;;;4980135;28;20080;-70
2022/06/07 11:10:29;;;;;;;9.88;3.47;;;25.90;90.60;;;;;;4985185;28;20088;-72
2022/06/07 11:13:17;;;;;;;7.13;3.00;;;26.00;90.30;;;;;;4986276;28;20138;-71
2022/06/07 11:16:00;;;;;;;42.20;9.30;;;25.90;87.90;;;;;;4974605;28;20046;-71
2022/06/07 11:18:27;;;;;;;16.42;5.82;;;25.80;88.90;;;;;;4986424;28;20062;-70
2022/06/07 11:21:01;;;;;;;5.70;1.92;;;25.70;90.10;;;;;;4993863;28;20184;-72
2022/06/07 11:24:17;;;;;;;1.63;1.30;;;25.80;90.50;;;;;;4994390;28;20492;-73
2022/06/07 11:26:52;;;;;;;2.22;1.50;;;25.90;90.70;;;;;;4960324;28;20034;-70
2022/06/07 11:29:29;;;;;;;1.48;1.38;;;25.90;90.00;;;;;;4988621;28;20129;-73
2022/06/07 11:31:56;;;;;;;4.85;2.25;;;25.80;89.50;;;;;;4995868;28;20539;-72
2022/06/07 11:34:31;;;;;;;6.20;1.60;;;25.70;90.00;;;;;;4989839;28;20108;-71
2022/06/07 11:37:15;;;;;;;1.50;1.40;;;25.60;90.20;;;;;;4993551;28;20036;-71
2022/06/07 11:39:41;;;;;;;1.20;1.02;;;25.60;90.00;;;;;;4982085;28;20062;-70
2022/06/07 11:42:20;;;;;;;2.13;1.17;;;25.60;90.20;;;;;;4994236;28;20065;-72
2022/06/07 11:45:04;;;;;;;1.00;1.00;;;25.60;90.50;;;;;;4994263;28;20040;-69
2022/06/07 11:48:16;;;;;;;1.55;1.40;;;25.60;88.90;;;;;;4994129;28;20045;-71
2022/06/07 11:51:14;;;;;;;1.27;1.17;;;25.60;90.60;;;;;;4957348;28;20556;-73
2022/06/07 11:54:09;;;;;;;1.40;1.30;;;25.70;90.80;;;;;;4991467;28;20149;-72
2022/06/07 11:56:44;;;;;;;1.55;1.27;;;25.80;90.60;;;;;;4981318;28;20057;-72
2022/06/07 11:59:20;;;;;;;1.63;1.33;;;25.80;89.80;;;;;;4976700;28;20092;-74
2022/06/07 12:01:48;;;;;;;3.03;1.20;;;25.90;93.40;;;;;;4998335;28;20573;-74
2022/06/07 12:04:47;;;;;;;2.55;1.45;;;25.90;92.80;;;;;;4995605;28;20030;-73
2022/06/07 12:07:36;;;;;;;4.63;1.40;;;26.00;90.30;;;;;;4934737;28;20041;-73
2022/06/07 12:10:35;;;;;;;1.20;1.10;;;26.00;89.10;;;;;;4991424;28;20111;-72
2022/06/07 12:13:11;;;;;;;1.35;1.25;;;26.00;89.10;;;;;;4963949;28;20125;-72
2022/06/07 12:15:39;;;;;;;1.23;1.13;;;26.00;86.80;;;;;;4997923;28;20065;-73
2022/06/07 12:18:16;;;;;;;1.75;1.13;;;26.00;88.20;;;;;;4996550;28;20047;-72
2022/06/07 12:20:43;;;;;;;1.80;1.42;;;26.10;84.40;;;;;;4986957;28;20542;-74
2022/06/07 12:23:26;;;;;;;1.38;1.13;;;26.10;85.20;;;;;;4991898;28;20568;-73
2022/06/07 12:26:29;;;;;;;1.13;1.08;;;26.10;83.60;;;;;;4993292;28;20491;-72
2022/06/07 12:29:20;;;;;;;1.02;1.00;;;26.00;83.20;;;;;;4983223;28;20084;-72
2022/06/07 12:31:58;;;;;;;1.70;0.90;;;26.10;83.80;;;;;;4968090;28;20122;-71
2022/06/07 12:34:31;;;;;;;1.27;0.90;;;26.10;84.20;;;;;;4966847;28;20049;-71
2022/06/07 12:37:08;;;;;;;1.48;1.23;;;26.20;82.30;;;;;;4990706;28;20120;-70
2022/06/07 12:40:07;;;;;;;2.55;1.10;;;26.10;84.00;;;;;;4990884;28;20030;-70
2022/06/07 12:42:32;;;;;;;1.25;1.15;;;26.10;85.50;;;;;;4985239;28;20058;-71
2022/06/07 12:45:20;;;;;;;2.47;1.05;;;26.00;84.20;;;;;;4997508;28;20108;-72
2022/06/07 12:47:46;;;;;;;2.55;1.17;;;26.00;84.90;;;;;;4988543;28;20082;-72
2022/06/07 12:50:31;;;;;;;1.45;1.35;;;25.90;86.30;;;;;;4971900;28;20038;-73
2022/06/07 12:52:57;;;;;;;3.17;1.27;;;26.00;85.30;;;;;;4978648;28;20657;-75
2022/06/07 12:55:31;;;;;;;3.15;1.20;;;25.90;85.00;;;;;;4994475;28;20452;-73
2022/06/07 12:58:04;;;;;;;1.83;1.38;;;26.00;85.70;;;;;;4997788;28;20042;-76
2022/06/07 13:00:39;;;;;;;3.25;1.40;;;26.00;87.80;;;;;;4995578;28;20053;-76
2022/06/07 13:03:34;;;;;;;1.70;1.40;;;26.00;88.10;;;;;;4990398;28;20162;-75
2022/06/07 13:06:04;;;;;;;6.65;1.33;;;26.00;85.90;;;;;;4980180;28;20129;-74
2022/06/07 13:08:38;;;;;;;2.22;1.40;;;25.90;85.90;;;;;;4991126;28;20038;-74
2022/06/07 13:11:11;;;;;;;1.65;1.48;;;25.90;86.50;;;;;;4994336;28;20503;-73
2022/06/07 13:13:39;;;;;;;1.40;1.30;;;25.90;85.40;;;;;;4995370;28;20578;-74
2022/06/07 13:16:08;;;;;;;4.30;1.50;;;25.80;85.90;;;;;;4995338;28;20026;-73
2022/06/07 13:18:37;;;;;;;3.08;1.60;;;25.80;84.90;;;;;;4992139;28;20164;-75
2022/06/07 13:21:32;;;;;;;2.72;1.60;;;25.80;86.70;;;;;;4982427;28;20052;-75
2022/06/07 13:23:59;;;;;;;2.70;1.30;;;25.90;88.50;;;;;;4980304;28;20153;-74
2022/06/07 13:26:30;;;;;;;1.70;1.42;;;25.90;90.50;;;;;;4989321;28;20030;-74
2022/06/07 13:29:10;;;;;;;3.10;1.58;;;25.90;90.00;;;;;;4996473;28;21470;-74
2022/06/07 13:31:41;;;;;;;2.88;2.00;;;25.90;90.50;;;;;;4983952;28;22023;-73
2022/06/07 13:34:22;;;;;;;;;;;26.00;91.00;;;;;;4975287;28;20041;-74
2022/06/07 13:37:06;;;;;;;3.22;1.90;;;26.00;91.00;;;;;;4970703;28;20019;-75
2022/06/07 13:39:34;;;;;;;2.15;1.73;;;26.10;90.90;;;;;;4987232;28;20134;-74
2022/06/07 13:42:16;;;;;;;1.85;1.70;;;26.20;90.70;;;;;;4993424;28;20052;-72
2022/06/07 13:45:04;;;;;;;1.67;1.55;;;26.30;91.10;;;;;;4992260;28;20029;-73
2022/06/07 13:47:37;;;;;;;1.63;1.48;;;26.30;91.50;;;;;;4989632;28;20116;-73
2022/06/07 13:53:25;;;;;;;1.63;1.52;;;26.30;90.70;;;;;;4992531;28;20077;-74
2022/06/07 13:55:57;;;;;;;1.45;1.23;;;26.30;91.20;;;;;;4988377;28;20035;-73
2022/06/07 13:58:29;;;;;;;2.47;1.10;;;26.50;88.20;;;;;;4993184;28;20121;-73
2022/06/07 14:01:20;;;;;;;1.27;1.13;;;26.60;86.40;;;;;;4989251;28;20070;-75
2022/06/07 14:03:48;;;;;;;1.98;1.20;;;26.70;84.70;;;;;;4986850;28;20489;-73
2022/06/07 14:06:30;;;;;;;1.73;1.08;;;26.70;86.10;;;;;;4993040;28;20189;-71
2022/06/07 14:08:57;;;;;;;1.40;1.30;;;26.70;86.40;;;;;;4986455;28;20131;-74
2022/06/07 14:11:23;;;;;;;1.23;0.98;;;26.50;89.00;;;;;;4992849;28;20078;-76
2022/06/07 14:13:49;;;;;;;1.15;1.05;;;26.40;87.40;;;;;;4980858;28;20166;-77
2022/06/07 14:16:18;;;;;;;0.90;0.90;;;26.40;89.60;;;;;;4979628;28;20056;-77
2022/06/07 14:18:45;;;;;;;1.02;0.93;;;26.40;89.60;;;;;;5002180;28;20026;-81
2022/06/07 14:21:11;;;;;;;1.38;0.88;;;26.50;88.40;;;;;;4988997;28;20136;-78
2022/06/07 14:23:37;;;;;;;2.92;1.20;;;26.50;89.10;;;;;;4983147;28;20759;-78
2022/06/07 14:26:02;;;;;;;1.58;1.15;;;26.70;90.20;;;;;;4955882;28;20120;-79
2022/06/07 14:28:28;;;;;;;1.10;1.00;;;26.80;90.10;;;;;;4976092;28;20956;-72
2022/06/07 14:30:55;;;;;;;1.38;1.10;;;26.90;90.10;;;;;;4976272;28;20495;-73
2022/06/07 14:33:23;;;;;;;2.15;1.10;;;27.00;88.00;;;;;;4981035;28;20052;-72
2022/06/07 14:35:50;;;;;;;2.80;1.10;;;27.10;84.80;;;;;;4986517;28;20058;-74
2022/06/07 14:38:20;;;;;;;1.42;1.08;;;27.20;84.90;;;;;;4987199;28;20049;-73
2022/06/07 14:40:47;;;;;;;4.68;1.83;;;27.20;85.60;;;;;;4981638;28;20064;-72
2022/06/07 14:43:19;;;;;;;2.53;0.70;;;27.30;82.90;;;;;;4991155;28;20037;-75
2022/06/07 14:45:49;;;;;;;1.70;0.80;;;27.30;82.90;;;;;;4989074;28;20049;-73
2022/06/07 14:48:27;;;;;;;1.00;0.90;;;27.30;81.70;;;;;;4984183;28;20092;-75
2022/06/07 14:50:52;;;;;;;1.98;1.05;;;27.40;82.10;;;;;;4974112;28;20379;-73
2022/06/07 14:53:19;;;;;;;1.60;1.00;;;27.40;83.70;;;;;;4977689;28;20038;-74
2022/06/07 14:55:44;;;;;;;0.80;0.70;;;27.50;80.80;;;;;;4978982;28;20076;-76
2022/06/07 14:58:10;;;;;;;1.00;0.80;;;27.40;81.90;;;;;;4986075;28;20045;-75
2022/06/07 15:00:36;;;;;;;2.35;0.77;;;27.20;79.40;;;;;;4985253;28;20132;-75
2022/06/07 15:03:05;;;;;;;3.67;0.82;;;27.20;79.50;;;;;;4985268;28;20045;-78